Darlington, Indiana
Current Conditions -  °F | °C
As of 6:54 AM on Thursday 29 Jan 2015 (Local Time) from KLAF Reporting Station
Clear Clear  
Wind Chill: 34°   Ceiling: Unl
Heat Index: 40°   Visibility: 10mi
Dew Point: 31°   Wind: 9mph
Humidity: 70%   Direction: 210°SSW
Pressure: 29.73"   Gusts: NA
Location:  40.11°N, 86.77°W
Report Text: KLAF 291154Z 21008KT 10SM CLR 04/M01 A2973 RMK AO2 SLP071 T00441006 10050 20017 56019
Loading
Personal Weather Stations






























Interactive Weather Map New forecast layout! Learn more

10-Day Weather Forecast

Advertisements
Track Severe Weather on mobile